AFL1410 UUEE-USSS
Flight info
| Callsign | AFL1410 |
|---|---|
| Flight time | 1h 53m |
| Altitude | 35000 |
| Route | N0490F350 KOGOM L94 EKPIR M864 INKEB L94 NAMER T765 GEMKI L94 LOMBI |
| Aircraft | B77W/H-VGDW/C |
Departure
| Time | 2026-05-07 16:57 |
|---|---|
| Airport | Sheremetyevo International Airport (UUEE) |
Arrival
| Time | 2026-05-07 18:50 |
|---|---|
| Airport | Koltsovo Airport (USSS) |
| Time | Latitude | Longitude | Altitude | Speed | Heading |
|---|---|---|---|---|---|
| 2026-05-07 16:33 | 55.97925 | 37.41922 | 644 ft | 0 kts | 255° |
| 2026-05-07 16:45 | 55.97928 | 37.41938 | 650 ft | 2 kts | 254° |
| 2026-05-07 16:45 | 55.97932 | 37.41966 | 645 ft | 2 kts | 255° |
| 2026-05-07 16:45 | 55.97937 | 37.41995 | 653 ft | 2 kts | 241° |
| 2026-05-07 16:45 | 55.97949 | 37.42013 | 648 ft | 2 kts | 173° |
| 2026-05-07 16:46 | 55.97958 | 37.42010 | 647 ft | 0 kts | 165° |
| 2026-05-07 16:50 | 55.97957 | 37.42011 | 647 ft | 1 kts | 165° |
| 2026-05-07 16:50 | 55.97929 | 37.42024 | 645 ft | 8 kts | 165° |
| 2026-05-07 16:51 | 55.97849 | 37.42063 | 652 ft | 14 kts | 165° |
| 2026-05-07 16:51 | 55.97763 | 37.42104 | 646 ft | 11 kts | 165° |
| 2026-05-07 16:51 | 55.97696 | 37.42179 | 651 ft | 13 kts | 114° |
| 2026-05-07 16:51 | 55.97709 | 37.42342 | 647 ft | 14 kts | 77° |
| 2026-05-07 16:52 | 55.97737 | 37.42528 | 647 ft | 16 kts | 75° |
| 2026-05-07 16:52 | 55.97767 | 37.42732 | 647 ft | 17 kts | 75° |
| 2026-05-07 16:52 | 55.97799 | 37.42946 | 646 ft | 18 kts | 75° |
| 2026-05-07 16:52 | 55.97832 | 37.43168 | 647 ft | 19 kts | 75° |
| 2026-05-07 16:53 | 55.97866 | 37.43397 | 647 ft | 19 kts | 75° |
| 2026-05-07 16:53 | 55.97900 | 37.43625 | 645 ft | 13 kts | 75° |
| 2026-05-07 16:53 | 55.97924 | 37.43784 | 649 ft | 14 kts | 74° |
| 2026-05-07 16:53 | 55.97943 | 37.43903 | 648 ft | 6 kts | 74° |
| 2026-05-07 16:54 | 55.97941 | 37.43982 | 648 ft | 7 kts | 116° |
| 2026-05-07 16:54 | 55.97902 | 37.44045 | 651 ft | 8 kts | 152° |
| 2026-05-07 16:54 | 55.97865 | 37.44062 | 650 ft | 5 kts | 169° |
| 2026-05-07 16:54 | 55.97830 | 37.44069 | 651 ft | 6 kts | 176° |
| 2026-05-07 16:55 | 55.97793 | 37.44038 | 647 ft | 6 kts | 226° |
| 2026-05-07 16:55 | 55.97776 | 37.43970 | 649 ft | 0 kts | 253° |
| 2026-05-07 16:56 | 55.97534 | 37.42370 | 646 ft | 145 kts | 255° |
| 2026-05-07 16:57 | 55.97210 | 37.40263 | 745 ft | 196 kts | 254° |
| 2026-05-07 16:57 | 55.96799 | 37.37888 | 1337 ft | 203 kts | 255° |
| 2026-05-07 16:57 | 55.96169 | 37.35614 | 2039 ft | 209 kts | 237° |
| 2026-05-07 16:57 | 55.95275 | 37.33486 | 2649 ft | 224 kts | 234° |
| 2026-05-07 16:58 | 55.94291 | 37.31140 | 2957 ft | 245 kts | 236° |
| 2026-05-07 16:58 | 55.93283 | 37.28645 | 3694 ft | 248 kts | 236° |
| 2026-05-07 16:58 | 55.92291 | 37.26138 | 4633 ft | 245 kts | 238° |
| 2026-05-07 16:58 | 55.91319 | 37.23656 | 5547 ft | 242 kts | 237° |
| 2026-05-07 16:59 | 55.90100 | 37.21568 | 6295 ft | 251 kts | 213° |
| 2026-05-07 16:59 | 55.88408 | 37.20698 | 6792 ft | 265 kts | 187° |
| 2026-05-07 16:59 | 55.86564 | 37.21377 | 6870 ft | 282 kts | 155° |
| 2026-05-07 16:59 | 55.85296 | 37.23084 | 6890 ft | 289 kts | 134° |
| 2026-05-07 17:00 | 55.84352 | 37.26226 | 6878 ft | 293 kts | 103° |
| 2026-05-07 17:00 | 55.84362 | 37.29866 | 6980 ft | 292 kts | 71° |
| 2026-05-07 17:00 | 55.85226 | 37.33030 | 7648 ft | 288 kts | 50° |
| 2026-05-07 17:00 | 55.86482 | 37.35823 | 8347 ft | 290 kts | 46° |
| 2026-05-07 17:01 | 55.87792 | 37.38583 | 8845 ft | 294 kts | 46° |
| 2026-05-07 17:01 | 55.89119 | 37.41390 | 8869 ft | 297 kts | 46° |
| 2026-05-07 17:01 | 55.90437 | 37.44223 | 8890 ft | 295 kts | 47° |
| 2026-05-07 17:01 | 55.91735 | 37.47038 | 8900 ft | 294 kts | 47° |
| 2026-05-07 17:02 | 55.93010 | 37.49870 | 8876 ft | 292 kts | 53° |
| 2026-05-07 17:02 | 55.93757 | 37.53241 | 8905 ft | 300 kts | 83° |
| 2026-05-07 17:02 | 55.93623 | 37.56968 | 9468 ft | 304 kts | 102° |
| 2026-05-07 17:02 | 55.93196 | 37.60691 | 10147 ft | 308 kts | 103° |
| 2026-05-07 17:03 | 55.92760 | 37.64444 | 10716 ft | 317 kts | 102° |
| 2026-05-07 17:03 | 55.92462 | 37.67062 | 11173 ft | 321 kts | 102° |
| 2026-05-07 17:03 | 55.92021 | 37.70983 | 11926 ft | 326 kts | 101° |
| 2026-05-07 17:03 | 55.91203 | 37.76112 | 13038 ft | 326 kts | 118° |
| 2026-05-07 17:04 | 55.90475 | 37.78509 | 13598 ft | 328 kts | 122° |
| 2026-05-07 17:04 | 55.88945 | 37.83186 | 14547 ft | 332 kts | 123° |
| 2026-05-07 17:04 | 55.88155 | 37.85607 | 14807 ft | 335 kts | 122° |
| 2026-05-07 17:04 | 55.86988 | 37.89226 | 14866 ft | 337 kts | 122° |
| 2026-05-07 17:05 | 55.85841 | 37.92837 | 14868 ft | 336 kts | 122° |
| 2026-05-07 17:05 | 55.84696 | 37.96468 | 14861 ft | 334 kts | 121° |
| 2026-05-07 17:05 | 55.83566 | 38.00068 | 14857 ft | 333 kts | 121° |
| 2026-05-07 17:05 | 55.82440 | 38.03652 | 14856 ft | 333 kts | 121° |
| 2026-05-07 17:06 | 55.81321 | 38.07207 | 14859 ft | 333 kts | 121° |
| 2026-05-07 17:06 | 55.80205 | 38.10798 | 14855 ft | 331 kts | 117° |
| 2026-05-07 17:06 | 55.79583 | 38.14747 | 14856 ft | 339 kts | 92° |
| 2026-05-07 17:06 | 55.79653 | 38.19083 | 15175 ft | 355 kts | 87° |
| 2026-05-07 17:07 | 55.79786 | 38.23459 | 15741 ft | 363 kts | 87° |
| 2026-05-07 17:07 | 55.79911 | 38.27978 | 15865 ft | 367 kts | 87° |
| 2026-05-07 17:07 | 55.80019 | 38.32519 | 15859 ft | 367 kts | 88° |
| 2026-05-07 17:07 | 55.80116 | 38.37055 | 15859 ft | 366 kts | 88° |
| 2026-05-07 17:08 | 55.80271 | 38.41572 | 15830 ft | 364 kts | 80° |
| 2026-05-07 17:08 | 55.80943 | 38.45925 | 16247 ft | 368 kts | 70° |
| 2026-05-07 17:08 | 55.81789 | 38.50236 | 17136 ft | 371 kts | 70° |
| 2026-05-07 17:08 | 55.82627 | 38.54598 | 18066 ft | 373 kts | 70° |
| 2026-05-07 17:09 | 55.83448 | 38.59019 | 18665 ft | 378 kts | 71° |
| 2026-05-07 17:09 | 55.84247 | 38.63438 | 18869 ft | 382 kts | 71° |
| 2026-05-07 17:09 | 55.85050 | 38.67947 | 18852 ft | 382 kts | 71° |
| 2026-05-07 17:09 | 55.85871 | 38.72455 | 18859 ft | 381 kts | 68° |
| 2026-05-07 17:10 | 55.86927 | 38.76856 | 18963 ft | 398 kts | 63° |
| 2026-05-07 17:10 | 55.88183 | 38.81399 | 19122 ft | 420 kts | 62° |
| 2026-05-07 17:10 | 55.89527 | 38.86172 | 19391 ft | 438 kts | 62° |
| 2026-05-07 17:10 | 55.90887 | 38.91099 | 19902 ft | 448 kts | 63° |
| 2026-05-07 17:11 | 55.92248 | 38.96151 | 20535 ft | 454 kts | 63° |
| 2026-05-07 17:11 | 55.93603 | 39.01264 | 21264 ft | 458 kts | 64° |
| 2026-05-07 17:11 | 55.94943 | 39.06357 | 22004 ft | 461 kts | 64° |
| 2026-05-07 17:11 | 55.96254 | 39.11623 | 22702 ft | 466 kts | 69° |
| 2026-05-07 17:12 | 55.96921 | 39.17295 | 23281 ft | 470 kts | 84° |
| 2026-05-07 17:12 | 55.97171 | 39.23160 | 23804 ft | 476 kts | 86° |
| 2026-05-07 17:12 | 55.97390 | 39.29067 | 24374 ft | 479 kts | 85° |
| 2026-05-07 17:12 | 55.97637 | 39.35049 | 24980 ft | 481 kts | 85° |
| 2026-05-07 17:13 | 55.97920 | 39.41020 | 25568 ft | 483 kts | 84° |
| 2026-05-07 17:13 | 55.98228 | 39.47012 | 26123 ft | 486 kts | 84° |
| 2026-05-07 17:13 | 55.98548 | 39.53042 | 26637 ft | 490 kts | 84° |
| 2026-05-07 17:13 | 55.98861 | 39.59052 | 27138 ft | 493 kts | 84° |
| 2026-05-07 17:14 | 55.99221 | 39.65143 | 27639 ft | 495 kts | 79° |
| 2026-05-07 17:14 | 56.00194 | 39.71017 | 28086 ft | 495 kts | 63° |
| 2026-05-07 17:14 | 56.01689 | 39.76525 | 28399 ft | 495 kts | 65° |
| 2026-05-07 17:14 | 56.02783 | 39.82441 | 28688 ft | 503 kts | 76° |
| 2026-05-07 17:15 | 56.03237 | 39.88659 | 29135 ft | 507 kts | 88° |
| 2026-05-07 17:15 | 56.03245 | 39.94979 | 29656 ft | 506 kts | 89° |
| 2026-05-07 17:15 | 56.03243 | 40.01254 | 30212 ft | 504 kts | 89° |
| 2026-05-07 17:15 | 56.03271 | 40.07519 | 30722 ft | 502 kts | 88° |
| 2026-05-07 17:16 | 56.03326 | 40.13750 | 31194 ft | 501 kts | 88° |
| 2026-05-07 17:16 | 56.03399 | 40.19993 | 31641 ft | 501 kts | 88° |
| 2026-05-07 17:16 | 56.03478 | 40.26208 | 32084 ft | 500 kts | 88° |
| 2026-05-07 17:16 | 56.03555 | 40.32364 | 32514 ft | 499 kts | 88° |
| 2026-05-07 17:17 | 56.03629 | 40.38635 | 32969 ft | 498 kts | 88° |
| 2026-05-07 17:17 | 56.03696 | 40.44742 | 33387 ft | 497 kts | 88° |
| 2026-05-07 17:17 | 56.03759 | 40.50924 | 33798 ft | 497 kts | 88° |
| 2026-05-07 17:17 | 56.03817 | 40.57079 | 34147 ft | 497 kts | 88° |
| 2026-05-07 17:18 | 56.03874 | 40.63286 | 34458 ft | 497 kts | 88° |
| 2026-05-07 17:18 | 56.03928 | 40.69476 | 34753 ft | 497 kts | 88° |
| 2026-05-07 17:18 | 56.04024 | 40.81895 | 34869 ft | 499 kts | 88° |
| 2026-05-07 17:19 | 56.04103 | 40.94417 | 34890 ft | 505 kts | 89° |
| 2026-05-07 17:19 | 56.04169 | 41.06906 | 34883 ft | 504 kts | 89° |
| 2026-05-07 17:20 | 56.04224 | 41.19405 | 34878 ft | 502 kts | 89° |
| 2026-05-07 17:20 | 56.04267 | 41.31894 | 34883 ft | 502 kts | 89° |
| 2026-05-07 17:21 | 56.04297 | 41.44421 | 34881 ft | 502 kts | 89° |
| 2026-05-07 17:21 | 56.04315 | 41.56911 | 34878 ft | 502 kts | 89° |
| 2026-05-07 17:22 | 56.04320 | 41.69396 | 34879 ft | 502 kts | 89° |
| 2026-05-07 17:22 | 56.04312 | 41.81894 | 34879 ft | 502 kts | 89° |
| 2026-05-07 17:23 | 56.04292 | 41.94375 | 34881 ft | 501 kts | 89° |
| 2026-05-07 17:23 | 56.04260 | 42.06790 | 34878 ft | 501 kts | 90° |
| 2026-05-07 17:24 | 56.04214 | 42.19242 | 34875 ft | 501 kts | 90° |
| 2026-05-07 17:24 | 56.04157 | 42.31715 | 34877 ft | 501 kts | 90° |
| 2026-05-07 17:25 | 56.04088 | 42.44268 | 34888 ft | 508 kts | 90° |
| 2026-05-07 17:25 | 56.04000 | 42.56934 | 34880 ft | 512 kts | 90° |
| 2026-05-07 17:26 | 56.03846 | 42.69720 | 34888 ft | 517 kts | 91° |
| 2026-05-07 17:26 | 56.03664 | 42.82623 | 34881 ft | 519 kts | 91° |
| 2026-05-07 17:27 | 56.03479 | 42.95511 | 34875 ft | 518 kts | 91° |
| 2026-05-07 17:27 | 56.03286 | 43.08284 | 34877 ft | 518 kts | 91° |
| 2026-05-07 17:28 | 56.03080 | 43.21156 | 34880 ft | 518 kts | 91° |
| 2026-05-07 17:28 | 56.02934 | 43.34037 | 34883 ft | 518 kts | 88° |
| 2026-05-07 17:29 | 56.03648 | 43.46852 | 34894 ft | 518 kts | 82° |
| 2026-05-07 17:29 | 56.04585 | 43.59634 | 34885 ft | 518 kts | 82° |
| 2026-05-07 17:30 | 56.05476 | 43.72419 | 34886 ft | 519 kts | 82° |
| 2026-05-07 17:30 | 56.06322 | 43.85251 | 34884 ft | 519 kts | 83° |
| 2026-05-07 17:31 | 56.07148 | 43.98109 | 34877 ft | 518 kts | 83° |
| 2026-05-07 17:31 | 56.07960 | 44.10935 | 34885 ft | 517 kts | 83° |
| 2026-05-07 17:32 | 56.08759 | 44.23728 | 34894 ft | 517 kts | 83° |
| 2026-05-07 17:32 | 56.09416 | 44.34398 | 34897 ft | 517 kts | 83° |
| 2026-05-07 17:33 | 56.10317 | 44.49305 | 34902 ft | 517 kts | 83° |
| 2026-05-07 17:33 | 56.11076 | 44.62114 | 34899 ft | 518 kts | 84° |
| 2026-05-07 17:34 | 56.11197 | 44.75021 | 34907 ft | 518 kts | 92° |
| 2026-05-07 17:34 | 56.10844 | 44.87904 | 34912 ft | 518 kts | 92° |
| 2026-05-07 17:35 | 56.10438 | 45.06251 | 34915 ft | 518 kts | 92° |
| 2026-05-07 17:37 | 56.09517 | 45.44344 | 34925 ft | 519 kts | 92° |
| 2026-05-07 17:37 | 56.09074 | 45.61474 | 34931 ft | 519 kts | 92° |
| 2026-05-07 17:38 | 56.08307 | 45.89046 | 34935 ft | 518 kts | 93° |
| 2026-05-07 17:39 | 56.07738 | 46.08185 | 34942 ft | 518 kts | 93° |
| 2026-05-07 17:40 | 56.07371 | 46.20077 | 34941 ft | 518 kts | 93° |
| 2026-05-07 17:40 | 56.06901 | 46.34724 | 34950 ft | 517 kts | 93° |
| 2026-05-07 17:41 | 56.06318 | 46.53722 | 34948 ft | 518 kts | 90° |
| 2026-05-07 17:41 | 56.06417 | 46.66608 | 34960 ft | 518 kts | 88° |
| 2026-05-07 17:42 | 56.06588 | 46.79515 | 34958 ft | 518 kts | 88° |
| 2026-05-07 17:42 | 56.06722 | 46.92418 | 34965 ft | 518 kts | 89° |
| 2026-05-07 17:43 | 56.06819 | 47.05302 | 34967 ft | 517 kts | 89° |
| 2026-05-07 17:43 | 56.06898 | 47.18183 | 34965 ft | 517 kts | 89° |
| 2026-05-07 17:44 | 56.06965 | 47.30963 | 34964 ft | 516 kts | 89° |
| 2026-05-07 17:44 | 56.07457 | 47.43770 | 34974 ft | 515 kts | 83° |
| 2026-05-07 17:45 | 56.08273 | 47.56535 | 34968 ft | 515 kts | 83° |
| 2026-05-07 17:45 | 56.09076 | 47.69280 | 34967 ft | 515 kts | 83° |
| 2026-05-07 17:46 | 56.09822 | 47.82036 | 34972 ft | 515 kts | 84° |
| 2026-05-07 17:46 | 56.10533 | 47.94818 | 34971 ft | 515 kts | 84° |
| 2026-05-07 17:47 | 56.11227 | 48.07602 | 34972 ft | 515 kts | 84° |
| 2026-05-07 17:47 | 56.11905 | 48.20287 | 34972 ft | 515 kts | 84° |
| 2026-05-07 17:48 | 56.12577 | 48.33062 | 34976 ft | 515 kts | 84° |
| 2026-05-07 17:48 | 56.13236 | 48.45848 | 34977 ft | 515 kts | 84° |
| 2026-05-07 17:49 | 56.13881 | 48.58627 | 34974 ft | 515 kts | 84° |
| 2026-05-07 17:49 | 56.14513 | 48.71410 | 34975 ft | 514 kts | 84° |
| 2026-05-07 17:50 | 56.15132 | 48.84189 | 34976 ft | 514 kts | 84° |
| 2026-05-07 17:50 | 56.15737 | 48.96973 | 34978 ft | 514 kts | 84° |
| 2026-05-07 17:51 | 56.16329 | 49.09754 | 34976 ft | 513 kts | 84° |
| 2026-05-07 17:51 | 56.16906 | 49.22521 | 34978 ft | 513 kts | 85° |
| 2026-05-07 17:52 | 56.17470 | 49.35278 | 34976 ft | 513 kts | 85° |
| 2026-05-07 17:52 | 56.18017 | 49.47946 | 34981 ft | 513 kts | 85° |
| 2026-05-07 17:53 | 56.18556 | 49.60734 | 34985 ft | 513 kts | 85° |
| 2026-05-07 17:53 | 56.19080 | 49.73504 | 34984 ft | 512 kts | 85° |
| 2026-05-07 17:54 | 56.19592 | 49.86272 | 34983 ft | 512 kts | 85° |
| 2026-05-07 17:54 | 56.20094 | 49.99040 | 34989 ft | 512 kts | 85° |
| 2026-05-07 17:55 | 56.20583 | 50.11795 | 34987 ft | 512 kts | 85° |
| 2026-05-07 17:55 | 56.21055 | 50.24564 | 34987 ft | 512 kts | 85° |
| 2026-05-07 17:56 | 56.21510 | 50.37240 | 34989 ft | 511 kts | 85° |
| 2026-05-07 17:56 | 56.21955 | 50.50011 | 34991 ft | 511 kts | 85° |
| 2026-05-07 17:57 | 56.22313 | 50.60604 | 34992 ft | 511 kts | 86° |
| 2026-05-07 17:57 | 56.22803 | 50.75520 | 34991 ft | 511 kts | 86° |
| 2026-05-07 17:58 | 56.23208 | 50.88274 | 34992 ft | 511 kts | 86° |
| 2026-05-07 17:58 | 56.23599 | 51.01015 | 34994 ft | 511 kts | 86° |
| 2026-05-07 17:59 | 56.23978 | 51.13777 | 34995 ft | 511 kts | 86° |
| 2026-05-07 17:59 | 56.24341 | 51.26453 | 34994 ft | 510 kts | 86° |
| 2026-05-07 18:00 | 56.24693 | 51.39200 | 34997 ft | 510 kts | 86° |
| 2026-05-07 18:00 | 56.25032 | 51.51980 | 34998 ft | 510 kts | 86° |
| 2026-05-07 18:01 | 56.25358 | 51.64733 | 34991 ft | 510 kts | 86° |
| 2026-05-07 18:01 | 56.25670 | 51.77475 | 34994 ft | 510 kts | 87° |
| 2026-05-07 18:02 | 56.26114 | 51.96604 | 34995 ft | 510 kts | 87° |
| 2026-05-07 18:03 | 56.26392 | 52.09280 | 35000 ft | 510 kts | 87° |
| 2026-05-07 18:03 | 56.26658 | 52.22022 | 34991 ft | 510 kts | 87° |
| 2026-05-07 18:04 | 56.26912 | 52.34792 | 35001 ft | 510 kts | 87° |
| 2026-05-07 18:04 | 56.27152 | 52.47552 | 35003 ft | 510 kts | 88° |
| 2026-05-07 18:05 | 56.27379 | 52.60272 | 34995 ft | 509 kts | 88° |
| 2026-05-07 18:05 | 56.27593 | 52.73013 | 34998 ft | 509 kts | 88° |
| 2026-05-07 18:06 | 56.27793 | 52.85734 | 34996 ft | 509 kts | 88° |
| 2026-05-07 18:06 | 56.27981 | 52.98469 | 35000 ft | 508 kts | 88° |
| 2026-05-07 18:07 | 56.28155 | 53.11204 | 34997 ft | 509 kts | 88° |
| 2026-05-07 18:07 | 56.28316 | 53.23925 | 34998 ft | 509 kts | 88° |
| 2026-05-07 18:08 | 56.28464 | 53.36606 | 34998 ft | 509 kts | 88° |
| 2026-05-07 18:08 | 56.28600 | 53.49354 | 34997 ft | 509 kts | 88° |
| 2026-05-07 18:09 | 56.28722 | 53.62115 | 34998 ft | 509 kts | 89° |
| 2026-05-07 18:09 | 56.28831 | 53.74850 | 34995 ft | 509 kts | 89° |
| 2026-05-07 18:10 | 56.28927 | 53.87614 | 34997 ft | 510 kts | 89° |
| 2026-05-07 18:10 | 56.29010 | 54.00376 | 34997 ft | 510 kts | 89° |
| 2026-05-07 18:11 | 56.29080 | 54.13059 | 34993 ft | 510 kts | 89° |
| 2026-05-07 18:11 | 56.29137 | 54.25830 | 34994 ft | 510 kts | 89° |
| 2026-05-07 18:12 | 56.29180 | 54.38590 | 34991 ft | 510 kts | 89° |
| 2026-05-07 18:12 | 56.29211 | 54.51389 | 34999 ft | 510 kts | 89° |
| 2026-05-07 18:13 | 56.29229 | 54.64097 | 34991 ft | 510 kts | 90° |
| 2026-05-07 18:13 | 56.29233 | 54.76867 | 34996 ft | 511 kts | 90° |
| 2026-05-07 18:14 | 56.29224 | 54.89676 | 34989 ft | 511 kts | 90° |
| 2026-05-07 18:14 | 56.29207 | 55.00405 | 34985 ft | 511 kts | 90° |
| 2026-05-07 18:15 | 56.29174 | 55.13206 | 34987 ft | 511 kts | 90° |
| 2026-05-07 18:15 | 56.29128 | 55.25941 | 34984 ft | 512 kts | 90° |
| 2026-05-07 18:16 | 56.29068 | 55.38775 | 34983 ft | 512 kts | 90° |
| 2026-05-07 18:16 | 56.28996 | 55.51580 | 34976 ft | 512 kts | 90° |
| 2026-05-07 18:17 | 56.28910 | 55.64412 | 34978 ft | 512 kts | 91° |
| 2026-05-07 18:17 | 56.28810 | 55.77234 | 34971 ft | 512 kts | 91° |
| 2026-05-07 18:18 | 56.28698 | 55.90070 | 34974 ft | 513 kts | 91° |
| 2026-05-07 18:18 | 56.28572 | 56.02910 | 34969 ft | 513 kts | 91° |
| 2026-05-07 18:19 | 56.28433 | 56.15747 | 34969 ft | 513 kts | 91° |
| 2026-05-07 18:19 | 56.28281 | 56.28588 | 34968 ft | 513 kts | 91° |
| 2026-05-07 18:20 | 56.28117 | 56.41348 | 34968 ft | 513 kts | 91° |
| 2026-05-07 18:20 | 56.27940 | 56.54205 | 34967 ft | 513 kts | 91° |
| 2026-05-07 18:21 | 56.28277 | 56.67040 | 34969 ft | 513 kts | 83° |
| 2026-05-07 18:21 | 56.29216 | 56.79779 | 34966 ft | 513 kts | 82° |
| 2026-05-07 18:22 | 56.30143 | 56.92532 | 34967 ft | 513 kts | 83° |
| 2026-05-07 18:22 | 56.31006 | 57.05226 | 34969 ft | 514 kts | 83° |
| 2026-05-07 18:23 | 56.31848 | 57.18005 | 34970 ft | 514 kts | 83° |
| 2026-05-07 18:23 | 56.32681 | 57.30795 | 34970 ft | 514 kts | 83° |
| 2026-05-07 18:24 | 56.33506 | 57.43618 | 34831 ft | 514 kts | 83° |
| 2026-05-07 18:24 | 56.33911 | 57.50026 | 34365 ft | 511 kts | 83° |
| 2026-05-07 18:24 | 56.34306 | 57.56343 | 33819 ft | 504 kts | 83° |
| 2026-05-07 18:24 | 56.34694 | 57.62588 | 33223 ft | 497 kts | 83° |
| 2026-05-07 18:25 | 56.35075 | 57.68764 | 32809 ft | 492 kts | 83° |
| 2026-05-07 18:25 | 56.35443 | 57.74779 | 32527 ft | 486 kts | 84° |
| 2026-05-07 18:25 | 56.35815 | 57.80888 | 31953 ft | 482 kts | 84° |
| 2026-05-07 18:25 | 56.36171 | 57.86793 | 31458 ft | 476 kts | 84° |
| 2026-05-07 18:26 | 56.36524 | 57.92699 | 30952 ft | 471 kts | 84° |
| 2026-05-07 18:26 | 56.36870 | 57.98533 | 30455 ft | 466 kts | 84° |
| 2026-05-07 18:26 | 56.37210 | 58.04320 | 29950 ft | 462 kts | 84° |
| 2026-05-07 18:26 | 56.37545 | 58.10066 | 29376 ft | 458 kts | 84° |
| 2026-05-07 18:27 | 56.37874 | 58.15751 | 28867 ft | 453 kts | 84° |
| 2026-05-07 18:27 | 56.38198 | 58.21383 | 28351 ft | 448 kts | 84° |
| 2026-05-07 18:27 | 56.38514 | 58.26926 | 27851 ft | 443 kts | 84° |
| 2026-05-07 18:27 | 56.38827 | 58.32440 | 27353 ft | 439 kts | 84° |
| 2026-05-07 18:28 | 56.39129 | 58.37829 | 26889 ft | 435 kts | 84° |
| 2026-05-07 18:28 | 56.39429 | 58.43242 | 26390 ft | 431 kts | 84° |
| 2026-05-07 18:28 | 56.39725 | 58.48611 | 25917 ft | 428 kts | 84° |
| 2026-05-07 18:28 | 56.40016 | 58.53937 | 25442 ft | 425 kts | 84° |
| 2026-05-07 18:29 | 56.40304 | 58.59248 | 24967 ft | 422 kts | 84° |
| 2026-05-07 18:29 | 56.40587 | 58.64500 | 24501 ft | 420 kts | 84° |
| 2026-05-07 18:29 | 56.40867 | 58.69744 | 24034 ft | 417 kts | 84° |
| 2026-05-07 18:29 | 56.41144 | 58.74965 | 23569 ft | 416 kts | 84° |
| 2026-05-07 18:30 | 56.41416 | 58.80145 | 23019 ft | 414 kts | 84° |
| 2026-05-07 18:30 | 56.41686 | 58.85312 | 22509 ft | 411 kts | 84° |
| 2026-05-07 18:30 | 56.41952 | 58.90433 | 22037 ft | 408 kts | 84° |
| 2026-05-07 18:30 | 56.42214 | 58.95531 | 21571 ft | 405 kts | 84° |
| 2026-05-07 18:31 | 56.42469 | 59.00509 | 21115 ft | 402 kts | 84° |
| 2026-05-07 18:31 | 56.42726 | 59.05600 | 20661 ft | 400 kts | 84° |
| 2026-05-07 18:31 | 56.42978 | 59.10521 | 20209 ft | 397 kts | 83° |
| 2026-05-07 18:31 | 56.43405 | 59.15430 | 19759 ft | 395 kts | 78° |
| 2026-05-07 18:32 | 56.43959 | 59.20291 | 19309 ft | 393 kts | 77° |
| 2026-05-07 18:32 | 56.44525 | 59.25124 | 18872 ft | 392 kts | 77° |
| 2026-05-07 18:32 | 56.45089 | 59.29935 | 18415 ft | 391 kts | 77° |
| 2026-05-07 18:32 | 56.45646 | 59.34737 | 17915 ft | 390 kts | 77° |
| 2026-05-07 18:33 | 56.46196 | 59.39534 | 17423 ft | 389 kts | 78° |
| 2026-05-07 18:33 | 56.46739 | 59.44313 | 16944 ft | 387 kts | 78° |
| 2026-05-07 18:33 | 56.47276 | 59.49079 | 16490 ft | 385 kts | 78° |
| 2026-05-07 18:33 | 56.47806 | 59.53812 | 16042 ft | 383 kts | 78° |
| 2026-05-07 18:34 | 56.48330 | 59.58524 | 15588 ft | 381 kts | 78° |
| 2026-05-07 18:34 | 56.48845 | 59.63161 | 15147 ft | 380 kts | 78° |
| 2026-05-07 18:34 | 56.49362 | 59.67847 | 14700 ft | 379 kts | 78° |
| 2026-05-07 18:34 | 56.49883 | 59.72575 | 14247 ft | 378 kts | 78° |
| 2026-05-07 18:35 | 56.50393 | 59.77226 | 13805 ft | 377 kts | 78° |
| 2026-05-07 18:35 | 56.50895 | 59.81823 | 13308 ft | 376 kts | 78° |
| 2026-05-07 18:35 | 56.51393 | 59.86396 | 12844 ft | 375 kts | 78° |
| 2026-05-07 18:35 | 56.51896 | 59.91031 | 12369 ft | 373 kts | 79° |
| 2026-05-07 18:36 | 56.52391 | 59.95613 | 11925 ft | 371 kts | 79° |
| 2026-05-07 18:36 | 56.52884 | 60.00189 | 11480 ft | 369 kts | 79° |
| 2026-05-07 18:36 | 56.53374 | 60.04753 | 11031 ft | 368 kts | 79° |
| 2026-05-07 18:36 | 56.53859 | 60.09293 | 10686 ft | 363 kts | 79° |
| 2026-05-07 18:37 | 56.54330 | 60.13713 | 10544 ft | 353 kts | 79° |
| 2026-05-07 18:37 | 56.54788 | 60.18033 | 10386 ft | 343 kts | 79° |
| 2026-05-07 18:37 | 56.55231 | 60.22217 | 10243 ft | 334 kts | 79° |
| 2026-05-07 18:37 | 56.55663 | 60.26311 | 10104 ft | 325 kts | 79° |
| 2026-05-07 18:38 | 56.56082 | 60.30304 | 9963 ft | 317 kts | 79° |
| 2026-05-07 18:38 | 56.56483 | 60.34137 | 9736 ft | 307 kts | 79° |
| 2026-05-07 18:38 | 56.56873 | 60.37869 | 9313 ft | 297 kts | 79° |
| 2026-05-07 18:38 | 56.57250 | 60.41493 | 8958 ft | 288 kts | 80° |
| 2026-05-07 18:39 | 56.57621 | 60.45070 | 8627 ft | 288 kts | 80° |
| 2026-05-07 18:39 | 56.57991 | 60.48640 | 8300 ft | 287 kts | 80° |
| 2026-05-07 18:39 | 56.58357 | 60.52197 | 7974 ft | 287 kts | 80° |
| 2026-05-07 18:39 | 56.58723 | 60.55758 | 7647 ft | 287 kts | 80° |
| 2026-05-07 18:40 | 56.59089 | 60.59329 | 7318 ft | 288 kts | 80° |
| 2026-05-07 18:40 | 56.59454 | 60.62903 | 6987 ft | 288 kts | 80° |
| 2026-05-07 18:40 | 56.59820 | 60.66484 | 6670 ft | 288 kts | 80° |
| 2026-05-07 18:40 | 56.60183 | 60.70062 | 6329 ft | 289 kts | 80° |
| 2026-05-07 18:41 | 56.60541 | 60.73589 | 5998 ft | 278 kts | 80° |
| 2026-05-07 18:41 | 56.60880 | 60.76938 | 5591 ft | 268 kts | 80° |
| 2026-05-07 18:41 | 56.61213 | 60.80243 | 5179 ft | 263 kts | 80° |
| 2026-05-07 18:41 | 56.61539 | 60.83487 | 4861 ft | 260 kts | 80° |
| 2026-05-07 18:42 | 56.61859 | 60.86686 | 4645 ft | 255 kts | 80° |
| 2026-05-07 18:42 | 56.62176 | 60.89857 | 4368 ft | 254 kts | 80° |
| 2026-05-07 18:42 | 56.62488 | 60.92983 | 4111 ft | 251 kts | 80° |
| 2026-05-07 18:42 | 56.62797 | 60.96089 | 3828 ft | 249 kts | 80° |
| 2026-05-07 18:43 | 56.63093 | 60.99079 | 3639 ft | 230 kts | 80° |
| 2026-05-07 18:43 | 56.63364 | 61.01813 | 3448 ft | 209 kts | 80° |
| 2026-05-07 18:43 | 56.63611 | 61.04315 | 3167 ft | 195 kts | 80° |
| 2026-05-07 18:43 | 56.63841 | 61.06656 | 2768 ft | 187 kts | 80° |
| 2026-05-07 18:44 | 56.64069 | 61.08958 | 2338 ft | 181 kts | 76° |
| 2026-05-07 18:44 | 56.64663 | 61.10857 | 2041 ft | 175 kts | 39° |
| 2026-05-07 18:44 | 56.65735 | 61.11844 | 2015 ft | 173 kts | 16° |
| 2026-05-07 18:44 | 56.66917 | 61.11779 | 2003 ft | 170 kts | 354° |
| 2026-05-07 18:45 | 56.68079 | 61.11436 | 1989 ft | 163 kts | 356° |
| 2026-05-07 18:45 | 56.69156 | 61.11134 | 2018 ft | 154 kts | 357° |
| 2026-05-07 18:45 | 56.70212 | 61.10838 | 1994 ft | 152 kts | 356° |
| 2026-05-07 18:45 | 56.71236 | 61.10548 | 1994 ft | 151 kts | 357° |
| 2026-05-07 18:46 | 56.72279 | 61.10252 | 2012 ft | 153 kts | 356° |
| 2026-05-07 18:46 | 56.73325 | 61.09843 | 1997 ft | 157 kts | 341° |
| 2026-05-07 18:46 | 56.74075 | 61.08348 | 2019 ft | 172 kts | 292° |
| 2026-05-07 18:46 | 56.74230 | 61.06174 | 2013 ft | 173 kts | 279° |
| 2026-05-07 18:47 | 56.74385 | 61.04003 | 1995 ft | 173 kts | 280° |
| 2026-05-07 18:47 | 56.74433 | 61.01827 | 2003 ft | 171 kts | 274° |
| 2026-05-07 18:47 | 56.74436 | 60.99649 | 2027 ft | 173 kts | 274° |
| 2026-05-07 18:47 | 56.74439 | 60.97501 | 1995 ft | 171 kts | 273° |
| 2026-05-07 18:48 | 56.74444 | 60.95329 | 2018 ft | 172 kts | 274° |
| 2026-05-07 18:48 | 56.74448 | 60.93148 | 2006 ft | 172 kts | 274° |
| 2026-05-07 18:48 | 56.74453 | 60.90981 | 1819 ft | 170 kts | 274° |
| 2026-05-07 18:48 | 56.74457 | 60.88883 | 1589 ft | 161 kts | 274° |
| 2026-05-07 18:49 | 56.74465 | 60.86876 | 1323 ft | 157 kts | 273° |
| 2026-05-07 18:49 | 56.74453 | 60.84932 | 1083 ft | 150 kts | 272° |
| 2026-05-07 18:49 | 56.74461 | 60.83077 | 926 ft | 145 kts | 272° |
| 2026-05-07 18:49 | 56.74465 | 60.81239 | 783 ft | 142 kts | 272° |
| 2026-05-07 18:50 | 56.74476 | 60.79821 | 781 ft | 65 kts | 271° |
| 2026-05-07 18:50 | 56.74479 | 60.79462 | 778 ft | 11 kts | 270° |
| 2026-05-07 18:50 | 56.74479 | 60.79323 | 778 ft | 11 kts | 270° |
| 2026-05-07 18:50 | 56.74518 | 60.79210 | 778 ft | 11 kts | 334° |
| 2026-05-07 18:51 | 56.74596 | 60.79191 | 782 ft | 11 kts | 355° |
| 2026-05-07 18:51 | 56.74675 | 60.79179 | 783 ft | 11 kts | 355° |
| 2026-05-07 18:51 | 56.74754 | 60.79180 | 783 ft | 11 kts | 3° |
| 2026-05-07 18:51 | 56.74832 | 60.79201 | 783 ft | 11 kts | 28° |
| 2026-05-07 18:52 | 56.74895 | 60.79248 | 783 ft | 7 kts | 9° |
| 2026-05-07 18:52 | 56.74906 | 60.79249 | 783 ft | 0 kts | 360° |
| 2026-05-07 18:52 | 56.74907 | 60.79249 | 783 ft | 1 kts | 1° |
| 2026-05-07 18:52 | 56.74911 | 60.79249 | 782 ft | 0 kts | 2° |